Time;durP1;ratioP1;P1;durP2;ratioP2;P2;SDS_P1;SDS_P2;PMS_P1;PMS_P2;Temp;Humidity;BMP_temperature;BMP_pressure;BME280_temperature;BME280_humidity;BME280_pressure;Samples;Min_cycle;Max_cycle;Signal;HPM_P1;HPM_P2
2022/11/24 00:02:02;;;;;;;65.47;33.97;;;;;;;;;;5074007;28;20194;-60
2022/11/24 00:04:30;;;;;;;59.65;34.63;;;;;;;;;;5073882;28;20195;-61
2022/11/24 00:06:57;;;;;;;72.28;38.50;;;;;;;;;;5073943;28;20198;-61
2022/11/24 00:09:28;;;;;;;84.93;37.10;;;;;;;;;;5074374;28;20269;-61
2022/11/24 00:12:00;;;;;;;67.25;35.60;;;;;;;;;;5073777;28;20189;-60
2022/11/24 00:14:27;;;;;;;59.05;35.85;;;;;;;;;;5073856;28;20221;-60
2022/11/24 00:16:54;;;;;;;60.38;37.42;;;;;;;;;;5074157;28;20226;-60
2022/11/24 00:19:21;;;;;;;63.38;37.75;;;;;;;;;;5073979;28;20194;-61
2022/11/24 00:21:49;;;;;;;56.78;34.90;;;;;;;;;;5073771;28;20194;-60
2022/11/24 00:24:16;;;;;;;59.88;38.38;;;;;;;;;;5073677;28;20247;-60
2022/11/24 00:26:45;;;;;;;60.03;35.78;;;;;;;;;;5073240;28;20206;-60
2022/11/24 00:29:14;;;;;;;55.25;35.65;;;;;;;;;;5073836;28;20257;-61
2022/11/24 00:31:41;;;;;;;53.58;35.55;;;;;;;;;;5073450;28;20646;-60
2022/11/24 00:34:11;;;;;;;53.97;35.13;;;;;;;;;;5073553;28;20213;-60
2022/11/24 00:36:41;;;;;;;60.72;36.90;;;;;;;;;;5072599;28;20651;-60
2022/11/24 00:39:11;;;;;;;60.10;36.80;;;;;;;;;;5073697;28;20546;-60
2022/11/24 00:41:41;;;;;;;59.97;36.58;;;;;;;;;;5073801;28;20214;-61
2022/11/24 00:44:09;;;;;;;56.55;35.50;;;;;;;;;;5073514;28;20554;-60
2022/11/24 00:46:37;;;;;;;65.28;38.97;;;;;;;;;;5073479;28;20205;-60
2022/11/24 00:49:04;;;;;;;60.78;37.50;;;;;;;;;;5073663;28;20199;-60
2022/11/24 00:51:31;;;;;;;60.95;37.92;;;;;;;;;;5073513;28;20727;-60
2022/11/24 00:54:11;;;;;;;60.15;38.40;;;;;;;;;;5073010;28;20226;-60
2022/11/24 00:56:41;;;;;;;62.85;40.88;;;;;;;;;;5073240;28;20201;-60
2022/11/24 00:59:17;;;;;;;66.72;38.78;;;;;;;;;;5073640;28;20218;-60
2022/11/24 01:01:46;;;;;;;58.45;37.92;;;;;;;;;;5073513;28;20244;-60
2022/11/24 01:04:25;;;;;;;63.60;38.47;;;;;;;;;;5073610;28;20195;-60
2022/11/24 01:06:52;;;;;;;64.75;38.97;;;;;;;;;;5073882;28;20607;-60
2022/11/24 01:09:21;;;;;;;66.28;37.05;;;;;;;;;;5073560;28;20195;-60
2022/11/24 01:12:03;;;;;;;69.20;40.58;;;;;;;;;;5073217;28;20210;-60
2022/11/24 01:14:31;;;;;;;63.20;38.67;;;;;;;;;;5073447;28;20266;-60
2022/11/24 01:17:00;;;;;;;59.13;37.33;;;;;;;;;;5073499;28;20534;-61
2022/11/24 01:19:28;;;;;;;55.22;37.17;;;;;;;;;;5073655;28;20259;-60
2022/11/24 01:21:55;;;;;;;60.95;40.03;;;;;;;;;;5073552;28;20630;-60
2022/11/24 01:24:22;;;;;;;67.53;39.03;;;;;;;;;;5073535;28;20666;-60
2022/11/24 01:26:55;;;;;;;81.07;41.42;;;;;;;;;;5073423;28;20215;-60
2022/11/24 01:29:33;;;;;;;63.83;38.10;;;;;;;;;;5073635;28;20237;-60
2022/11/24 01:32:02;;;;;;;74.15;43.03;;;;;;;;;;5073115;28;20642;-60
2022/11/24 01:34:29;;;;;;;67.85;40.42;;;;;;;;;;5073146;28;20308;-60
2022/11/24 01:36:56;;;;;;;71.10;39.92;;;;;;;;;;5073242;28;20282;-60
2022/11/24 01:39:24;;;;;;;67.18;39.78;;;;;;;;;;5075829;28;20197;-60
2022/11/24 01:41:51;;;;;;;67.43;41.47;;;;;;;;;;5077096;28;20205;-60
2022/11/24 01:44:26;;;;;;;65.70;39.83;;;;;;;;;;5077186;28;20198;-60
2022/11/24 01:46:55;;;;;;;67.97;40.15;;;;;;;;;;5077536;28;20746;-61
2022/11/24 01:49:26;;;;;;;72.07;39.28;;;;;;;;;;5076719;28;20191;-60
2022/11/24 01:51:56;;;;;;;60.13;38.35;;;;;;;;;;5076855;28;20527;-60
2022/11/24 01:54:26;;;;;;;69.57;36.78;;;;;;;;;;5076663;28;20261;-60
2022/11/24 01:56:55;;;;;;;74.10;40.47;;;;;;;;;;5076530;28;20194;-60
2022/11/24 01:59:22;;;;;;;77.20;38.33;;;;;;;;;;5076587;28;20286;-60
2022/11/24 02:01:51;;;;;;;66.60;36.55;;;;;;;;;;5076539;28;20615;-60
2022/11/24 02:04:22;;;;;;;79.63;37.97;;;;;;;;;;5076264;28;20244;-60
2022/11/24 02:06:52;;;;;;;75.65;37.42;;;;;;;;;;5076507;28;20284;-60
2022/11/24 02:09:22;;;;;;;69.22;37.80;;;;;;;;;;5076615;28;20222;-60
2022/11/24 02:11:49;;;;;;;62.03;36.58;;;;;;;;;;5076426;28;20198;-60
2022/11/24 02:14:18;;;;;;;70.10;38.30;;;;;;;;;;5076164;28;20214;-60
2022/11/24 02:16:49;;;;;;;83.32;40.03;;;;;;;;;;5076130;28;20202;-60
2022/11/24 02:19:21;;;;;;;76.95;40.22;;;;;;;;;;5076302;28;20186;-60
2022/11/24 02:21:50;;;;;;;81.18;39.63;;;;;;;;;;5075881;28;20196;-60
2022/11/24 02:24:20;;;;;;;73.30;38.45;;;;;;;;;;5076158;28;20577;-60
2022/11/24 02:26:50;;;;;;;66.63;37.70;;;;;;;;;;5076173;28;20201;-60
2022/11/24 02:29:19;;;;;;;62.13;37.70;;;;;;;;;;5076226;28;20229;-60
2022/11/24 02:31:48;;;;;;;78.88;37.95;;;;;;;;;;5075930;28;20249;-60
2022/11/24 02:34:16;;;;;;;67.03;36.13;;;;;;;;;;5076069;28;20210;-60
2022/11/24 02:36:43;;;;;;;75.35;35.13;;;;;;;;;;5075710;28;20230;-60
2022/11/24 02:39:12;;;;;;;58.40;36.17;;;;;;;;;;5075678;28;20585;-60
2022/11/24 02:41:40;;;;;;;57.92;35.33;;;;;;;;;;5075838;28;20203;-60
2022/11/24 02:44:14;;;;;;;63.88;36.88;;;;;;;;;;5075780;28;20188;-60
2022/11/24 02:46:44;;;;;;;63.60;36.53;;;;;;;;;;5075731;28;20191;-60
2022/11/24 02:49:12;;;;;;;54.63;34.22;;;;;;;;;;5075788;28;20719;-59
2022/11/24 02:51:40;;;;;;;65.93;34.58;;;;;;;;;;5075042;28;20222;-59
2022/11/24 02:54:07;;;;;;;54.65;33.40;;;;;;;;;;5075394;28;20669;-60
2022/11/24 02:56:34;;;;;;;48.75;31.77;;;;;;;;;;5075360;28;20198;-59
2022/11/24 02:59:01;;;;;;;58.67;33.30;;;;;;;;;;5075617;28;20262;-60
2022/11/24 03:01:30;;;;;;;56.95;33.25;;;;;;;;;;5075690;28;20596;-59
2022/11/24 03:03:59;;;;;;;59.45;34.17;;;;;;;;;;5075348;28;20271;-59
2022/11/24 03:06:26;;;;;;;63.92;31.65;;;;;;;;;;5075207;28;20197;-59
2022/11/24 03:08:53;;;;;;;53.25;32.58;;;;;;;;;;5075384;28;20190;-59
2022/11/24 03:11:21;;;;;;;60.83;34.92;;;;;;;;;;5075044;28;20214;-60
2022/11/24 03:13:48;;;;;;;53.38;31.88;;;;;;;;;;5075276;28;20243;-60
2022/11/24 03:16:15;;;;;;;61.65;34.58;;;;;;;;;;5075149;28;20222;-59
2022/11/24 03:18:44;;;;;;;53.97;31.73;;;;;;;;;;5074967;28;20188;-60
2022/11/24 03:21:11;;;;;;;56.58;33.25;;;;;;;;;;5074933;28;20191;-59
2022/11/24 03:23:38;;;;;;;54.70;32.05;;;;;;;;;;5074861;28;20282;-60
2022/11/24 03:26:09;;;;;;;56.10;30.50;;;;;;;;;;5075067;28;20219;-60
2022/11/24 03:28:37;;;;;;;54.90;31.80;;;;;;;;;;5074889;28;20187;-60
2022/11/24 03:31:04;;;;;;;49.08;30.95;;;;;;;;;;5074879;28;20209;-60
2022/11/24 03:33:31;;;;;;;59.05;31.27;;;;;;;;;;5074752;28;20264;-60
2022/11/24 03:36:00;;;;;;;50.63;29.60;;;;;;;;;;5074455;28;20304;-60
2022/11/24 03:38:27;;;;;;;48.42;30.90;;;;;;;;;;5074589;28;20593;-59
2022/11/24 03:40:54;;;;;;;47.55;29.70;;;;;;;;;;5074708;28;20189;-59
2022/11/24 03:43:22;;;;;;;47.83;29.85;;;;;;;;;;5074566;28;20202;-60
2022/11/24 03:45:49;;;;;;;50.53;30.90;;;;;;;;;;5074743;28;20297;-59
2022/11/24 03:48:21;;;;;;;48.03;28.67;;;;;;;;;;5074456;28;20223;-60
2022/11/24 03:50:53;;;;;;;55.75;32.40;;;;;;;;;;5074749;28;20658;-59
2022/11/24 03:53:22;;;;;;;61.45;30.17;;;;;;;;;;5074428;28;20190;-59
2022/11/24 03:55:49;;;;;;;50.05;27.80;;;;;;;;;;5074082;28;20222;-60
2022/11/24 03:58:16;;;;;;;49.55;27.05;;;;;;;;;;5074387;28;20298;-59
2022/11/24 04:00:43;;;;;;;62.67;31.63;;;;;;;;;;5074148;28;20187;-59
2022/11/24 04:03:11;;;;;;;48.55;26.92;;;;;;;;;;5073259;28;20187;-59
2022/11/24 04:05:38;;;;;;;52.97;29.88;;;;;;;;;;5074317;28;20217;-59
2022/11/24 04:08:06;;;;;;;43.70;28.10;;;;;;;;;;5073963;28;20717;-59
2022/11/24 04:10:36;;;;;;;45.28;28.77;;;;;;;;;;5074093;28;20195;-59
2022/11/24 04:13:02;;;;;;;47.05;28.23;;;;;;;;;;5074145;28;20194;-59
2022/11/24 04:15:30;;;;;;;42.15;28.20;;;;;;;;;;5073939;28;20284;-59
2022/11/24 04:17:57;;;;;;;57.50;27.63;;;;;;;;;;5074102;28;20186;-59
2022/11/24 04:20:25;;;;;;;50.60;26.85;;;;;;;;;;5073925;28;20198;-59
2022/11/24 04:22:52;;;;;;;46.33;29.67;;;;;;;;;;5074058;28;20194;-59
2022/11/24 04:25:20;;;;;;;45.20;27.73;;;;;;;;;;5073707;28;20237;-60
2022/11/24 04:27:51;;;;;;;47.92;28.13;;;;;;;;;;5073630;28;20198;-59
2022/11/24 04:30:19;;;;;;;46.22;27.65;;;;;;;;;;5073570;28;20195;-59
2022/11/24 04:32:47;;;;;;;52.35;28.17;;;;;;;;;;5073855;28;20320;-59
2022/11/24 04:35:14;;;;;;;43.00;27.20;;;;;;;;;;5073611;28;20268;-59
2022/11/24 04:37:42;;;;;;;42.97;27.77;;;;;;;;;;5073529;28;20192;-60
2022/11/24 04:40:10;;;;;;;43.72;27.58;;;;;;;;;;5073684;28;20196;-59
2022/11/24 04:42:38;;;;;;;41.80;27.50;;;;;;;;;;5073464;28;20195;-59
2022/11/24 04:45:07;;;;;;;74.63;30.48;;;;;;;;;;5073241;28;20218;-59
2022/11/24 04:47:35;;;;;;;51.42;26.88;;;;;;;;;;5073165;28;20230;-59
2022/11/24 04:50:03;;;;;;;53.03;26.15;;;;;;;;;;5073321;28;20198;-59
2022/11/24 04:52:31;;;;;;;46.03;27.58;;;;;;;;;;5073257;28;20204;-58
2022/11/24 04:54:58;;;;;;;48.55;25.85;;;;;;;;;;5073241;28;20221;-59
2022/11/24 04:57:26;;;;;;;52.10;26.45;;;;;;;;;;5073110;28;20194;-59
2022/11/24 04:59:54;;;;;;;40.35;24.98;;;;;;;;;;5073238;28;20198;-59
2022/11/24 05:02:23;;;;;;;44.63;26.73;;;;;;;;;;5073211;28;20280;-59
2022/11/24 05:04:50;;;;;;;52.53;26.77;;;;;;;;;;5073211;28;20283;-59
2022/11/24 05:07:18;;;;;;;50.88;26.38;;;;;;;;;;5073202;28;20539;-59
2022/11/24 05:12:31;;;;;;;44.70;25.15;;;;;;;;;;5073311;28;20236;-59
2022/11/24 05:14:58;;;;;;;43.20;26.27;;;;;;;;;;5077010;28;20217;-59
2022/11/24 05:17:29;;;;;;;36.97;22.45;;;;;;;;;;5077352;28;20194;-58
2022/11/24 05:19:57;;;;;;;34.00;23.25;;;;;;;;;;5077079;28;20256;-59
2022/11/24 05:22:24;;;;;;;48.80;26.15;;;;;;;;;;5077008;28;20260;-59
2022/11/24 05:24:51;;;;;;;57.67;26.23;;;;;;;;;;5077260;28;20541;-59
2022/11/24 05:27:18;;;;;;;40.75;25.38;;;;;;;;;;5077206;28;20557;-59
2022/11/24 05:29:46;;;;;;;44.75;24.17;;;;;;;;;;5077164;28;20535;-60
2022/11/24 05:32:13;;;;;;;38.03;25.02;;;;;;;;;;5077113;28;20191;-59
2022/11/24 05:34:42;;;;;;;42.58;24.80;;;;;;;;;;5077138;28;20191;-60
2022/11/24 05:37:09;;;;;;;37.38;24.40;;;;;;;;;;5076629;28;20605;-60
2022/11/24 05:39:37;;;;;;;35.75;23.75;;;;;;;;;;5076790;28;20187;-61
2022/11/24 05:42:39;;;;;;;39.90;24.88;;;;;;;;;;5076680;28;20187;-60
2022/11/24 05:44:52;;;;;;;43.67;24.13;;;;;;;;;;5076700;28;20198;-59
2022/11/24 05:47:20;;;;;;;40.00;23.17;;;;;;;;;;5076560;28;20280;-60
2022/11/24 05:49:49;;;;;;;35.05;23.77;;;;;;;;;;5076552;28;20198;-59
2022/11/24 05:52:16;;;;;;;37.53;23.63;;;;;;;;;;5077028;28;20266;-60
2022/11/24 05:54:44;;;;;;;41.67;25.17;;;;;;;;;;5076999;28;20713;-60
2022/11/24 05:57:12;;;;;;;38.20;26.05;;;;;;;;;;5076600;28;20222;-60
2022/11/24 05:59:39;;;;;;;40.33;25.92;;;;;;;;;;5076477;28;20702;-60
2022/11/24 06:02:06;;;;;;;38.63;23.38;;;;;;;;;;5076367;28;20232;-59
2022/11/24 06:04:34;;;;;;;39.78;24.00;;;;;;;;;;5076805;28;20187;-60
2022/11/24 06:07:02;;;;;;;34.65;22.88;;;;;;;;;;5076655;28;20190;-59
2022/11/24 06:09:32;;;;;;;35.70;22.50;;;;;;;;;;5076619;28;20607;-59
2022/11/24 06:11:59;;;;;;;34.00;21.27;;;;;;;;;;5076234;28;20206;-60
2022/11/24 06:14:27;;;;;;;34.08;22.48;;;;;;;;;;5076323;28;20192;-59
2022/11/24 06:16:54;;;;;;;33.72;21.33;;;;;;;;;;5076018;28;20229;-59
2022/11/24 06:19:21;;;;;;;39.05;22.00;;;;;;;;;;5076235;28;20328;-60
2022/11/24 06:21:49;;;;;;;39.42;22.00;;;;;;;;;;5076302;28;20554;-59
2022/11/24 06:24:17;;;;;;;41.35;22.75;;;;;;;;;;5075806;28;20722;-60
2022/11/24 06:26:45;;;;;;;34.38;21.83;;;;;;;;;;5075503;28;20191;-59
2022/11/24 06:29:12;;;;;;;40.97;22.25;;;;;;;;;;5075780;28;20190;-60
2022/11/24 06:31:39;;;;;;;34.80;22.30;;;;;;;;;;5075915;28;20201;-60
2022/11/24 06:34:07;;;;;;;37.50;22.52;;;;;;;;;;5075691;28;20193;-60
2022/11/24 06:36:34;;;;;;;34.20;22.00;;;;;;;;;;5075900;28;20218;-59
2022/11/24 06:39:01;;;;;;;42.95;20.65;;;;;;;;;;5075780;28;20259;-59
2022/11/24 06:41:30;;;;;;;35.20;21.30;;;;;;;;;;5075693;28;20297;-59
2022/11/24 06:43:57;;;;;;;39.47;22.15;;;;;;;;;;5075761;28;20193;-59
2022/11/24 06:46:25;;;;;;;36.63;23.17;;;;;;;;;;5075824;28;20645;-60
2022/11/24 06:48:52;;;;;;;33.35;20.25;;;;;;;;;;5075503;28;20301;-59
2022/11/24 06:51:19;;;;;;;35.58;21.35;;;;;;;;;;5075711;28;20708;-60
2022/11/24 06:53:47;;;;;;;34.33;20.63;;;;;;;;;;5075431;28;20282;-59
2022/11/24 06:56:14;;;;;;;33.97;22.35;;;;;;;;;;5075343;28;20226;-61
2022/11/24 06:58:44;;;;;;;40.70;22.48;;;;;;;;;;5075620;28;20603;-60
2022/11/24 07:01:14;;;;;;;34.85;19.92;;;;;;;;;;5075161;28;20677;-60
2022/11/24 07:03:42;;;;;;;40.55;22.30;;;;;;;;;;5075323;28;20191;-60
2022/11/24 07:06:09;;;;;;;40.28;22.17;;;;;;;;;;5075263;28;20707;-60
2022/11/24 07:08:36;;;;;;;40.05;22.63;;;;;;;;;;5074571;28;20322;-59
2022/11/24 07:11:05;;;;;;;33.58;21.42;;;;;;;;;;5074712;28;20230;-59
2022/11/24 07:13:32;;;;;;;34.80;21.38;;;;;;;;;;5075076;28;20238;-59
2022/11/24 07:16:01;;;;;;;32.38;21.48;;;;;;;;;;5075008;28;20339;-60
2022/11/24 07:18:28;;;;;;;34.50;21.50;;;;;;;;;;5074876;28;20210;-59
2022/11/24 07:20:55;;;;;;;33.55;21.60;;;;;;;;;;5074992;28;20196;-60
2022/11/24 07:23:22;;;;;;;34.90;20.95;;;;;;;;;;5074822;28;20195;-60
2022/11/24 07:25:49;;;;;;;35.75;22.42;;;;;;;;;;5074999;28;20255;-60
2022/11/24 07:28:17;;;;;;;40.33;22.95;;;;;;;;;;5074947;28;20194;-59
2022/11/24 07:30:44;;;;;;;36.80;21.15;;;;;;;;;;5074645;28;20211;-60
2022/11/24 07:33:14;;;;;;;35.55;21.08;;;;;;;;;;5074763;28;20245;-59
2022/11/24 07:35:41;;;;;;;34.55;20.60;;;;;;;;;;5074316;28;20212;-60
2022/11/24 07:38:09;;;;;;;44.05;22.20;;;;;;;;;;5074330;28;20198;-59
2022/11/24 07:40:36;;;;;;;39.15;21.10;;;;;;;;;;5074538;28;20288;-59
2022/11/24 07:43:03;;;;;;;40.05;20.63;;;;;;;;;;5074490;28;20190;-59
2022/11/24 07:45:30;;;;;;;36.88;20.10;;;;;;;;;;5074257;28;20199;-59
2022/11/24 07:47:58;;;;;;;32.75;18.13;;;;;;;;;;5074352;28;20224;-59
2022/11/24 07:50:26;;;;;;;31.30;20.55;;;;;;;;;;5074181;28;20199;-59
2022/11/24 07:52:53;;;;;;;37.83;20.75;;;;;;;;;;5074386;28;20469;-59
2022/11/24 07:55:20;;;;;;;31.15;19.25;;;;;;;;;;5074037;28;20214;-59
2022/11/24 07:57:47;;;;;;;30.85;19.77;;;;;;;;;;5074086;28;20218;-60
2022/11/24 08:00:15;;;;;;;33.53;20.45;;;;;;;;;;5073967;28;20191;-59
2022/11/24 08:02:42;;;;;;;29.52;18.45;;;;;;;;;;5073919;28;20237;-59
2022/11/24 08:05:10;;;;;;;30.45;19.08;;;;;;;;;;5074001;28;20214;-59
2022/11/24 08:07:38;;;;;;;32.70;20.70;;;;;;;;;;5074092;28;20249;-59
2022/11/24 08:10:06;;;;;;;30.10;19.15;;;;;;;;;;5073633;28;20194;-58
2022/11/24 08:12:33;;;;;;;29.50;19.88;;;;;;;;;;5073729;28;20190;-59
2022/11/24 08:15:01;;;;;;;31.77;19.05;;;;;;;;;;5074121;28;20241;-58
2022/11/24 08:17:28;;;;;;;32.88;19.67;;;;;;;;;;5074061;28;20573;-59
2022/11/24 08:19:56;;;;;;;29.25;18.67;;;;;;;;;;5074310;28;20198;-60
2022/11/24 08:22:23;;;;;;;35.47;20.70;;;;;;;;;;5074262;28;20716;-60
2022/11/24 08:24:55;;;;;;;28.30;19.40;;;;;;;;;;5074043;28;20244;-60
2022/11/24 08:27:22;;;;;;;31.30;20.27;;;;;;;;;;5073727;28;20196;-64
2022/11/24 08:29:49;;;;;;;31.27;21.20;;;;;;;;;;5074041;28;20676;-60
2022/11/24 08:32:16;;;;;;;28.85;18.17;;;;;;;;;;5074082;28;20198;-62
2022/11/24 08:34:43;;;;;;;29.75;19.67;;;;;;;;;;5073529;28;20191;-60
2022/11/24 08:37:18;;;;;;;34.05;21.70;;;;;;;;;;5073153;28;20226;-60
2022/11/24 08:39:46;;;;;;;27.63;18.13;;;;;;;;;;5073491;28;20679;-62
2022/11/24 08:42:14;;;;;;;28.90;18.13;;;;;;;;;;5073765;28;20201;-60
2022/11/24 08:44:41;;;;;;;29.15;19.13;;;;;;;;;;5073053;28;20600;-60
2022/11/24 08:47:09;;;;;;;31.77;19.02;;;;;;;;;;5073625;28;20218;-65
2022/11/24 08:49:36;;;;;;;31.95;19.13;;;;;;;;;;5073062;28;20248;-60
2022/11/24 08:52:03;;;;;;;31.15;19.42;;;;;;;;;;5073394;28;20198;-61
2022/11/24 08:54:30;;;;;;;29.25;18.95;;;;;;;;;;5073535;28;20203;-65
2022/11/24 08:56:58;;;;;;;31.48;19.88;;;;;;;;;;5073429;28;20253;-64
2022/11/24 08:59:26;;;;;;;31.33;20.30;;;;;;;;;;5073710;28;20531;-63
2022/11/24 09:01:54;;;;;;;29.50;19.65;;;;;;;;;;5073631;28;20225;-63
2022/11/24 09:04:21;;;;;;;26.35;18.77;;;;;;;;;;5073200;28;20195;-63
2022/11/24 09:06:48;;;;;;;30.20;19.65;;;;;;;;;;5073369;28;20195;-63
2022/11/24 09:09:15;;;;;;;30.65;20.27;;;;;;;;;;5073258;28;20325;-60
2022/11/24 09:11:42;;;;;;;34.55;21.00;;;;;;;;;;5073294;28;20684;-59
2022/11/24 09:14:09;;;;;;;29.38;18.70;;;;;;;;;;5079043;28;20187;-61
2022/11/24 09:16:38;;;;;;;29.15;18.75;;;;;;;;;;5082633;28;20609;-62
2022/11/24 09:19:06;;;;;;;32.70;20.13;;;;;;;;;;5079070;28;20253;-59
2022/11/24 09:21:36;;;;;;;28.92;19.35;;;;;;;;;;5084335;28;20217;-61
2022/11/24 09:24:04;;;;;;;30.08;19.63;;;;;;;;;;5093125;28;20186;-66
2022/11/24 09:26:32;;;;;;;32.35;18.30;;;;;;;;;;5087771;28;20641;-64
2022/11/24 09:29:00;;;;;;;27.25;18.40;;;;;;;;;;5073216;28;20191;-64
2022/11/24 09:31:28;;;;;;;28.88;18.65;;;;;;;;;;5072883;28;20294;-64
2022/11/24 09:33:56;;;;;;;30.65;19.60;;;;;;;;;;5072990;28;20253;-65
2022/11/24 09:36:24;;;;;;;34.55;20.15;;;;;;;;;;5072459;28;20220;-65
2022/11/24 09:38:51;;;;;;;30.23;21.17;;;;;;;;;;5072895;28;20223;-68
2022/11/24 09:41:33;;;;;;;28.75;19.50;;;;;;;;;;5073258;28;20190;-61
2022/11/24 09:44:05;;;;;;;36.78;21.63;;;;;;;;;;5050902;28;20298;-61
2022/11/24 09:46:33;;;;;;;34.00;20.15;;;;;;;;;;5073103;28;20587;-61
2022/11/24 09:49:03;;;;;;;28.38;18.67;;;;;;;;;;5072194;28;20277;-63
2022/11/24 09:51:33;;;;;;;25.92;18.35;;;;;;;;;;5072743;28;20200;-63
2022/11/24 09:54:02;;;;;;;27.55;18.88;;;;;;;;;;5072794;28;20199;-63
2022/11/24 09:56:31;;;;;;;29.83;19.70;;;;;;;;;;5072413;28;20238;-62
2022/11/24 09:59:02;;;;;;;28.77;19.42;;;;;;;;;;5072272;28;20539;-59
2022/11/24 10:01:30;;;;;;;27.67;18.58;;;;;;;;;;5074957;28;20192;-60
2022/11/24 10:03:57;;;;;;;29.20;18.38;;;;;;;;;;5076020;28;20191;-62
2022/11/24 10:06:29;;;;;;;32.47;20.35;;;;;;;;;;5075946;28;20199;-59
2022/11/24 10:09:13;;;;;;;24.75;17.95;;;;;;;;;;5075932;28;20254;-66
2022/11/24 10:11:43;;;;;;;26.65;19.40;;;;;;;;;;5076038;28;20226;-62
2022/11/24 10:14:25;;;;;;;30.25;19.13;;;;;;;;;;5075747;28;20199;-63
2022/11/24 10:16:54;;;;;;;32.30;19.17;;;;;;;;;;5075313;28;20212;-59
2022/11/24 10:19:29;;;;;;;28.42;20.00;;;;;;;;;;5075834;28;20675;-59
2022/11/24 10:22:08;;;;;;;28.55;19.73;;;;;;;;;;5076026;28;20202;-59
2022/11/24 10:24:44;;;;;;;28.23;18.63;;;;;;;;;;5075769;28;20197;-59
2022/11/24 10:27:16;;;;;;;31.95;20.38;;;;;;;;;;5075917;28;20198;-59
2022/11/24 10:29:43;;;;;;;29.73;20.33;;;;;;;;;;5075852;28;20245;-59
2022/11/24 10:32:15;;;;;;;30.77;20.73;;;;;;;;;;5075210;28;20500;-61
2022/11/24 10:34:44;;;;;;;28.75;20.55;;;;;;;;;;5075448;28;20323;-61
2022/11/24 10:37:15;;;;;;;30.13;20.25;;;;;;;;;;5075069;28;20220;-61
2022/11/24 10:39:46;;;;;;;31.13;21.23;;;;;;;;;;5075298;28;20196;-61
2022/11/24 10:42:16;;;;;;;35.13;23.27;;;;;;;;;;5075242;28;20670;-62
2022/11/24 10:44:45;;;;;;;33.80;22.35;;;;;;;;;;5075397;28;20196;-62
2022/11/24 10:47:18;;;;;;;27.58;19.42;;;;;;;;;;5075180;28;20628;-61
2022/11/24 10:49:49;;;;;;;33.53;22.13;;;;;;;;;;5075407;28;20258;-60
2022/11/24 10:52:19;;;;;;;30.52;21.27;;;;;;;;;;5077669;28;20230;-60
2022/11/24 10:54:56;;;;;;;31.25;20.63;;;;;;;;;;5078056;28;20241;-59
2022/11/24 10:57:30;;;;;;;34.33;21.27;;;;;;;;;;5075175;28;20301;-61
2022/11/24 10:59:57;;;;;;;28.85;20.42;;;;;;;;;;5074679;28;20555;-61
2022/11/24 11:02:29;;;;;;;42.03;32.45;;;;;;;;;;5075028;28;20196;-62
2022/11/24 11:04:56;;;;;;;34.75;20.60;;;;;;;;;;5074885;28;20606;-62
2022/11/24 11:07:26;;;;;;;32.15;21.65;;;;;;;;;;5074674;28;20253;-61
2022/11/24 11:10:15;;;;;;;30.92;21.95;;;;;;;;;;5074856;28;20203;-63
2022/11/24 11:12:42;;;;;;;31.88;21.20;;;;;;;;;;5073973;28;20195;-61
2022/11/24 11:15:25;;;;;;;29.58;20.77;;;;;;;;;;5075005;28;20283;-64
2022/11/24 11:17:56;;;;;;;32.40;21.70;;;;;;;;;;5074860;28;20348;-63
2022/11/24 11:20:27;;;;;;;30.20;20.52;;;;;;;;;;5074571;28;20192;-63
2022/11/24 11:22:55;;;;;;;30.42;20.80;;;;;;;;;;5074432;28;20196;-63
2022/11/24 11:25:24;;;;;;;32.53;21.83;;;;;;;;;;5074644;28;20224;-63
2022/11/24 11:27:51;;;;;;;32.80;21.83;;;;;;;;;;5074740;28;20602;-59
2022/11/24 11:30:19;;;;;;;32.08;20.58;;;;;;;;;;5074219;28;20196;-60
2022/11/24 11:32:54;;;;;;;30.83;20.25;;;;;;;;;;5073921;28;20194;-59
2022/11/24 11:35:22;;;;;;;32.13;21.57;;;;;;;;;;5074216;28;20188;-60
2022/11/24 11:37:49;;;;;;;33.23;20.23;;;;;;;;;;5073883;28;20485;-59
2022/11/24 11:40:18;;;;;;;29.20;20.30;;;;;;;;;;5074218;28;20475;-62
2022/11/24 11:42:48;;;;;;;31.25;22.00;;;;;;;;;;5073995;28;20539;-62
2022/11/24 11:45:17;;;;;;;34.80;22.67;;;;;;;;;;5073971;28;20197;-59
2022/11/24 11:47:46;;;;;;;31.38;21.30;;;;;;;;;;5073412;28;20721;-59
2022/11/24 11:50:14;;;;;;;27.92;19.92;;;;;;;;;;5073833;28;20197;-59
2022/11/24 11:52:50;;;;;;;31.60;21.47;;;;;;;;;;5073942;28;20236;-61
2022/11/24 11:55:38;;;;;;;32.47;21.45;;;;;;;;;;5087002;28;20540;-62
2022/11/24 11:58:16;;;;;;;31.75;21.33;;;;;;;;;;5090587;28;20216;-63
2022/11/24 12:00:47;;;;;;;32.50;20.80;;;;;;;;;;5089165;28;20183;-62
2022/11/24 12:03:30;;;;;;;29.67;21.65;;;;;;;;;;5094484;28;20449;-62
2022/11/24 12:06:01;;;;;;;35.78;21.98;;;;;;;;;;5094353;28;20319;-61
2022/11/24 12:08:32;;;;;;;29.65;20.30;;;;;;;;;;5094203;28;20269;-61
2022/11/24 12:11:03;;;;;;;32.50;21.80;;;;;;;;;;5094443;28;20526;-62
2022/11/24 12:13:37;;;;;;;32.30;20.08;;;;;;;;;;5094365;28;20953;-61
2022/11/24 12:16:09;;;;;;;34.40;21.97;;;;;;;;;;5094241;28;20194;-61
2022/11/24 12:18:42;;;;;;;31.48;22.48;;;;;;;;;;5094005;28;20486;-61
2022/11/24 12:21:15;;;;;;;29.45;20.70;;;;;;;;;;5093103;28;20187;-59
2022/11/24 12:23:50;;;;;;;35.97;22.17;;;;;;;;;;5092658;28;20254;-60
2022/11/24 12:26:24;;;;;;;33.40;20.83;;;;;;;;;;5075584;28;20465;-57
2022/11/24 12:29:02;;;;;;;35.30;22.93;;;;;;;;;;5090097;28;20533;-61
2022/11/24 12:31:33;;;;;;;29.15;20.77;;;;;;;;;;5093450;28;20449;-61
2022/11/24 12:34:05;;;;;;;27.70;19.93;;;;;;;;;;5093028;28;20634;-63
2022/11/24 12:36:37;;;;;;;28.40;19.40;;;;;;;;;;5076968;28;20450;-63
2022/11/24 12:39:06;;;;;;;27.70;19.17;;;;;;;;;;5073067;28;20585;-57
2022/11/24 12:41:41;;;;;;;28.00;19.87;;;;;;;;;;5073248;28;20486;-59
2022/11/24 12:44:19;;;;;;;29.97;21.53;;;;;;;;;;5073373;28;21013;-62
2022/11/24 12:46:50;;;;;;;29.47;20.70;;;;;;;;;;5072850;28;20454;-62
2022/11/24 12:49:21;;;;;;;30.07;21.00;;;;;;;;;;5072991;28;20520;-60
2022/11/24 12:51:51;;;;;;;28.90;20.40;;;;;;;;;;5072995;28;20851;-62
2022/11/24 12:54:21;;;;;;;29.75;20.23;;;;;;;;;;5072950;28;20446;-61
2022/11/24 12:56:50;;;;;;;30.20;20.23;;;;;;;;;;5073050;28;20190;-59
2022/11/24 12:59:26;;;;;;;31.10;21.93;;;;;;;;;;5072818;28;20589;-62
2022/11/24 13:01:59;;;;;;;32.87;22.40;;;;;;;;;;5073170;28;20455;-61
2022/11/24 13:04:32;;;;;;;29.73;21.38;;;;;;;;;;5073128;28;20458;-60
2022/11/24 13:07:01;;;;;;;29.50;22.00;;;;;;;;;;5072718;28;20234;-60
2022/11/24 13:09:28;;;;;;;34.23;20.57;;;;;;;;;;5073086;28;20547;-61
2022/11/24 13:12:05;;;;;;;39.22;21.58;;;;;;;;;;5073387;28;20788;-62
2022/11/24 13:14:36;;;;;;;33.92;21.50;;;;;;;;;;5073231;28;20190;-60
2022/11/24 13:17:04;;;;;;;38.60;22.40;;;;;;;;;;5073404;28;20196;-59
2022/11/24 13:19:33;;;;;;;32.80;22.60;;;;;;;;;;5073175;28;20486;-59
2022/11/24 13:22:01;;;;;;;32.80;20.90;;;;;;;;;;5073096;28;20197;-59
2022/11/24 13:24:30;;;;;;;34.67;22.02;;;;;;;;;;5072952;28;20551;-62
2022/11/24 13:27:12;;;;;;;33.93;21.97;;;;;;;;;;5072923;28;20197;-58
2022/11/24 13:29:41;;;;;;;32.70;22.60;;;;;;;;;;5073200;28;20459;-61
2022/11/24 13:32:27;;;;;;;34.90;22.42;;;;;;;;;;5073438;28;20270;-65
2022/11/24 13:34:55;;;;;;;36.53;22.17;;;;;;;;;;5075152;28;20231;-63
2022/11/24 13:37:44;;;;;;;40.03;24.02;;;;;;;;;;5077301;28;20199;-60
2022/11/24 13:40:28;;;;;;;31.90;22.00;;;;;;;;;;5077490;28;20196;-61
2022/11/24 13:43:18;;;;;;;37.50;23.50;;;;;;;;;;5076792;28;20191;-61
2022/11/24 13:45:51;;;;;;;34.58;22.67;;;;;;;;;;5076968;28;20454;-62
2022/11/24 13:48:36;;;;;;;42.00;29.70;;;;;;;;;;5075209;28;20457;-62
2022/11/24 13:51:09;;;;;;;38.42;25.23;;;;;;;;;;5076535;28;20454;-60
2022/11/24 13:53:37;;;;;;;35.90;22.83;;;;;;;;;;5076661;28;20192;-63
2022/11/24 13:56:08;;;;;;;37.80;24.25;;;;;;;;;;5076437;28;20200;-64
2022/11/24 13:58:36;;;;;;;35.17;23.50;;;;;;;;;;5076294;28;20739;-62
2022/11/24 14:01:07;;;;;;;36.00;23.00;;;;;;;;;;5076084;28;20563;-65
2022/11/24 14:03:35;;;;;;;32.27;23.43;;;;;;;;;;5076527;28;20196;-61
2022/11/24 14:06:03;;;;;;;32.50;22.60;;;;;;;;;;5076603;28;20454;-63
2022/11/24 14:08:31;;;;;;;35.83;24.20;;;;;;;;;;5076424;28;20891;-62
2022/11/24 14:11:00;;;;;;;33.87;21.33;;;;;;;;;;5075274;28;20188;-60
2022/11/24 14:13:28;;;;;;;35.90;23.45;;;;;;;;;;5075842;28;20499;-59
2022/11/24 14:16:06;;;;;;;33.60;21.47;;;;;;;;;;5076155;28;20203;-58
2022/11/24 14:18:34;;;;;;;32.67;22.27;;;;;;;;;;5076926;28;20489;-59
2022/11/24 14:21:02;;;;;;;34.55;23.05;;;;;;;;;;5080094;28;20510;-59
2022/11/24 14:23:29;;;;;;;34.53;21.98;;;;;;;;;;5075807;28;20287;-59
2022/11/24 14:25:56;;;;;;;31.80;21.50;;;;;;;;;;5077857;28;20189;-59
2022/11/24 14:28:25;;;;;;;39.90;24.47;;;;;;;;;;5092884;28;20441;-59
2022/11/24 14:30:52;;;;;;;36.95;22.00;;;;;;;;;;5095879;28;20942;-60
2022/11/24 14:33:21;;;;;;;37.23;23.30;;;;;;;;;;5095774;28;20189;-63